Time;durP1;ratioP1;P1;durP2;ratioP2;P2;SDS_P1;SDS_P2;PMS_P1;PMS_P2;Temp;Humidity;BMP_temperature;BMP_pressure;BME280_temperature;BME280_humidity;BME280_pressure;Samples;Min_cycle;Max_cycle;Signal;HPM_P1;HPM_P2
2022/05/11 00:01:13;;;;;;;;;;;;;;;;;;5004046;28;19918;-81
2022/05/11 00:03:39;;;;;;;;;;;;;;;;;;4990829;28;19968;-80
2022/05/11 00:06:05;;;;;;;;;;;;;;;;;;5016681;28;19921;-81
2022/05/11 00:08:31;;;;;;;;;;;;;;;;;;5000703;28;20399;-81
2022/05/11 00:10:56;;;;;;;;;;;;;;;;;;5002189;28;19924;-81
2022/05/11 00:13:22;;;;;;;;;;;;;;;;;;5003032;28;19940;-81
2022/05/11 00:15:47;;;;;;;;;;;;;;;;;;5018645;28;20009;-81
2022/05/11 00:18:12;;;;;;;;;;;;;;;;;;5000784;28;19926;-81
2022/05/11 00:20:38;;;;;;;;;;;;;;;;;;5017271;28;19917;-81
2022/05/11 00:23:04;;;;;;;;;;;;;;;;;;5006236;28;20364;-80
2022/05/11 00:25:30;;;;;;;;;;;;;;;;;;5012594;28;19924;-81
2022/05/11 00:27:56;;;;;;;;;;;;;;;;;;5029275;28;19984;-81
2022/05/11 00:30:22;;;;;;;;;;;;;;;;;;4995469;28;19917;-80
2022/05/11 00:32:50;;;;;;;;;;;;;;;;;;4994345;28;19921;-80
2022/05/11 00:35:16;;;;;;;;;;;;;;;;;;4994768;28;19917;-81
2022/05/11 00:37:41;;;;;;;;;;;;;;;;;;5011543;28;19964;-81
2022/05/11 00:40:07;;;;;;;;;;;;;;;;;;5002055;28;20287;-81
2022/05/11 00:42:32;;;;;;;;;;;;;;;;;;5000295;28;19925;-81
2022/05/11 00:44:57;;;;;;;;;;;;;;;;;;5000369;28;19928;-80
2022/05/11 00:47:25;;;;;;;;;;;;;;;;;;4989442;28;19917;-81
2022/05/11 00:49:57;;;;;;;;;;;;;;;;;;5010966;28;19925;-80
2022/05/11 00:52:42;;;;;;;;;;;;;;;;;;5033948;28;19932;-81
2022/05/11 00:55:20;;;;;;;;;;;;;;;;;;5016255;28;19921;-80
2022/05/11 00:57:53;;;;;;;;;;;;;;;;;;5028576;28;20354;-80
2022/05/11 01:00:19;;;;;;;;;;;;;;;;;;5017523;28;19917;-81
2022/05/11 01:02:47;;;;;;;;;;;;;;;;;;4995717;28;20272;-80
2022/05/11 01:05:12;;;;;;;;;;;;;;;;;;5015676;28;19917;-80
2022/05/11 01:07:38;;;;;;;;;;;;;;;;;;5015581;28;20292;-80
2022/05/11 01:10:05;;;;;;;;;;;;;;;;;;5015728;28;19917;-80
2022/05/11 01:12:51;;;;;;;;;;;;;;;;;;5042734;28;20497;-81
2022/05/11 01:15:17;;;;;;;;;;;;;;;;;;5022879;28;19917;-81
2022/05/11 01:17:43;;;;;;;;;;;;;;;;;;5025874;28;19922;-81
2022/05/11 01:20:12;;;;;;;;;;;;;;;;;;5028472;28;19925;-81
2022/05/11 01:22:50;;;;;;;;;;;;;;;;;;5007669;28;19980;-80
2022/05/11 01:25:15;;;;;;;;;;;;;;;;;;5019695;28;19928;-80
2022/05/11 01:27:46;;;;;;;;;;;;;;;;;;5035181;28;20012;-80
2022/05/11 01:30:19;;;;;;;;;;;;;;;;;;5018427;28;19952;-80
2022/05/11 01:32:46;;;;;;;;;;;;;;;;;;5031152;28;19924;-80
2022/05/11 01:35:27;;;;;;;;;;;;;;;;;;5019100;28;20016;-81
2022/05/11 01:37:58;;;;;;;;;;;;;;;;;;5015908;28;19921;-81
2022/05/11 01:40:23;;;;;;;;;;;;;;;;;;5012282;28;19940;-80
2022/05/11 01:42:49;;;;;;;;;;;;;;;;;;5020196;28;19921;-81
2022/05/11 01:45:14;;;;;;;;;;;;;;;;;;4996992;28;19918;-80
2022/05/11 01:47:40;;;;;;;;;;;;;;;;;;5018321;28;19940;-80
2022/05/11 01:50:05;;;;;;;;;;;;;;;;;;5022607;28;19918;-80
2022/05/11 01:52:31;;;;;;;;;;;;;;;;;;5004112;28;19967;-80
2022/05/11 01:54:56;;;;;;;;;;;;;;;;;;5010212;28;19918;-81
2022/05/11 01:57:21;;;;;;;;;;;;;;;;;;5036199;28;19944;-81
2022/05/11 01:59:47;;;;;;;;;;;;;;;;;;5025678;28;19918;-81
2022/05/11 02:02:12;;;;;;;;;;;;;;;;;;5021933;28;19969;-79
2022/05/11 02:10:06;;;;;;;;;;;;;;;;;;5040066;28;19924;-80
2022/05/11 02:12:35;;;;;;;;;;;;;;;;;;5019538;28;19917;-81
2022/05/11 02:15:01;;;;;;;;;;;;;;;;;;5022564;28;20311;-82
2022/05/11 02:17:27;;;;;;;;;;;;;;;;;;5014800;28;19992;-79
2022/05/11 02:19:53;;;;;;;;;;;;;;;;;;5025553;28;19940;-80
2022/05/11 02:22:19;;;;;;;;;;;;;;;;;;5000678;28;20473;-80
2022/05/11 02:24:44;;;;;;;;;;;;;;;;;;5023472;28;19980;-81
2022/05/11 02:27:10;;;;;;;;;;;;;;;;;;5024117;28;19918;-80
2022/05/11 02:29:35;;;;;;;;;;;;;;;;;;5003801;28;19924;-79
2022/05/11 02:32:02;;;;;;;;;;;;;;;;;;5042419;28;19921;-80
2022/05/11 02:37:12;;;;;;;;;;;;;;;;;;5043247;28;19921;-80
2022/05/11 02:39:39;;;;;;;;;;;;;;;;;;5025314;28;19917;-80
2022/05/11 02:42:05;;;;;;;;;;;;;;;;;;5039482;28;19992;-80
2022/05/11 02:44:31;;;;;;;;;;;;;;;;;;5035106;28;19918;-80
2022/05/11 02:46:57;;;;;;;;;;;;;;;;;;5022957;28;19918;-80
2022/05/11 02:49:23;;;;;;;;;;;;;;;;;;4994697;28;19917;-80
2022/05/11 02:51:51;;;;;;;;;;;;;;;;;;5017501;28;20012;-83
2022/05/11 02:54:16;;;;;;;;;;;;;;;;;;5011050;28;19940;-79
2022/05/11 02:56:41;;;;;;;;;;;;;;;;;;5017294;28;19925;-79
2022/05/11 02:59:07;;;;;;;;;;;;;;;;;;5016500;28;20044;-80
2022/05/11 03:01:33;;;;;;;;;;;;;;;;;;5047730;28;19920;-78
2022/05/11 03:03:59;;;;;;;;;;;;;;;;;;5027029;28;20361;-81
2022/05/11 03:06:26;;;;;;;;;;;;;;;;;;5021003;28;19917;-80
2022/05/11 03:08:51;;;;;;;;;;;;;;;;;;5027557;28;19989;-80
2022/05/11 03:11:17;;;;;;;;;;;;;;;;;;5003449;28;20011;-80
2022/05/11 03:13:42;;;;;;;;;;;;;;;;;;5027359;28;19924;-79
2022/05/11 03:16:08;;;;;;;;;;;;;;;;;;5024842;28;20496;-81
2022/05/11 03:18:33;;;;;;;;;;;;;;;;;;5012946;28;20377;-81
2022/05/11 03:20:59;;;;;;;;;;;;;;;;;;5038553;28;19965;-80
2022/05/11 03:23:25;;;;;;;;;;;;;;;;;;5001947;28;19924;-80
2022/05/11 03:25:51;;;;;;;;;;;;;;;;;;5059347;28;19953;-80
2022/05/11 03:28:16;;;;;;;;;;;;;;;;;;5017626;28;19925;-80
2022/05/11 03:30:42;;;;;;;;;;;;;;;;;;5020723;28;20008;-81
2022/05/11 03:35:51;;;;;;;;;;;;;;;;;;5034710;28;20295;-80
2022/05/11 03:38:16;;;;;;;;;;;;;;;;;;5013960;28;19922;-81
2022/05/11 03:40:42;;;;;;;;;;;;;;;;;;5022345;28;19925;-80
2022/05/11 03:43:08;;;;;;;;;;;;;;;;;;5025825;28;19926;-80
2022/05/11 03:45:34;;;;;;;;;;;;;;;;;;5005172;28;19918;-80
2022/05/11 03:47:59;;;;;;;;;;;;;;;;;;5024819;28;20011;-80
2022/05/11 03:50:25;;;;;;;;;;;;;;;;;;5018610;28;19917;-80
2022/05/11 03:52:51;;;;;;;;;;;;;;;;;;5024858;28;19921;-80
2022/05/11 03:55:17;;;;;;;;;;;;;;;;;;5014175;28;20425;-80
2022/05/11 03:57:43;;;;;;;;;;;;;;;;;;5019403;28;19997;-80
2022/05/11 04:00:12;;;;;;;;;;;;;;;;;;5020155;28;19978;-80
2022/05/11 04:02:37;;;;;;;;;;;;;;;;;;5015259;28;20302;-81
2022/05/11 04:05:03;;;;;;;;;;;;;;;;;;5021471;28;19917;-80
2022/05/11 04:07:28;;;;;;;;;;;;;;;;;;5046692;28;20016;-80
2022/05/11 04:09:53;;;;;;;;;;;;;;;;;;5021483;28;19968;-80
2022/05/11 04:12:19;;;;;;;;;;;;;;;;;;5016205;28;20025;-80
2022/05/11 04:14:44;;;;;;;;;;;;;;;;;;5020470;28;19925;-80
2022/05/11 04:17:10;;;;;;;;;;;;;;;;;;5019238;28;19921;-80
2022/05/11 04:19:35;;;;;;;;;;;;;;;;;;5014407;28;19975;-80
2022/05/11 04:22:01;;;;;;;;;;;;;;;;;;5019376;28;19960;-80
2022/05/11 04:24:26;;;;;;;;;;;;;;;;;;5017324;28;19917;-80
2022/05/11 04:26:51;;;;;;;;;;;;;;;;;;5023769;28;19946;-80
2022/05/11 04:29:17;;;;;;;;;;;;;;;;;;5013684;28;19917;-80
2022/05/11 04:31:42;;;;;;;;;;;;;;;;;;5036034;28;19925;-80
2022/05/11 04:34:11;;;;;;;;;;;;;;;;;;5019774;28;20008;-80
2022/05/11 04:36:37;;;;;;;;;;;;;;;;;;4999275;28;19966;-80
2022/05/11 04:39:03;;;;;;;;;;;;;;;;;;5023038;28;19917;-79
2022/05/11 04:41:28;;;;;;;;;;;;;;;;;;5014756;28;20353;-80
2022/05/11 04:43:53;;;;;;;;;;;;;;;;;;5019735;28;19988;-80
2022/05/11 04:46:19;;;;;;;;;;;;;;;;;;5047205;28;19925;-80
2022/05/11 04:48:44;;;;;;;;;;;;;;;;;;5022285;28;19921;-80
2022/05/11 04:51:11;;;;;;;;;;;;;;;;;;5037041;28;19924;-80
2022/05/11 04:53:37;;;;;;;;;;;;;;;;;;4989697;28;19917;-80
2022/05/11 04:56:02;;;;;;;;;;;;;;;;;;5025483;28;20016;-80
2022/05/11 04:58:27;;;;;;;;;;;;;;;;;;5008888;28;19945;-80
2022/05/11 05:00:54;;;;;;;;;;;;;;;;;;4990971;28;19917;-80
2022/05/11 05:03:20;;;;;;;;;;;;;;;;;;5004933;28;19917;-80
2022/05/11 05:05:45;;;;;;;;;;;;;;;;;;4988866;28;19991;-80
2022/05/11 05:08:11;;;;;;;;;;;;;;;;;;4991381;28;19917;-80
2022/05/11 05:10:37;;;;;;;;;;;;;;;;;;4993551;28;19921;-79
2022/05/11 05:13:03;;;;;;;;;;;;;;;;;;4991096;28;19924;-81
2022/05/11 05:15:29;;;;;;;;;;;;;;;;;;4991484;28;19925;-80
2022/05/11 05:17:54;;;;;;;;;;;;;;;;;;5019865;28;19922;-81
2022/05/11 05:20:21;;;;;;;;;;;;;;;;;;4985984;28;19921;-80
2022/05/11 05:22:47;;;;;;;;;;;;;;;;;;5002545;28;19921;-80
2022/05/11 05:25:12;;;;;;;;;;;;;;;;;;4986161;28;19922;-81
2022/05/11 05:27:38;;;;;;;;;;;;;;;;;;5017237;28;20487;-81
2022/05/11 05:32:48;;;;;;;;;;;;;;;;;;5024449;28;19969;-80
2022/05/11 05:35:16;;;;;;;;;;;;;;;;;;4992264;28;19925;-80
2022/05/11 05:37:42;;;;;;;;;;;;;;;;;;5009724;28;19985;-80
2022/05/11 05:40:08;;;;;;;;;;;;;;;;;;5008565;28;19949;-80
2022/05/11 05:42:33;;;;;;;;;;;;;;;;;;4992372;28;19948;-81
2022/05/11 05:44:58;;;;;;;;;;;;;;;;;;4993671;28;19917;-81
2022/05/11 05:47:23;;;;;;;;;;;;;;;;;;5009620;28;20402;-81
2022/05/11 05:49:49;;;;;;;;;;;;;;;;;;4986815;28;19921;-79
2022/05/11 05:52:19;;;;;;;;;;;;;;;;;;5005936;28;19928;-79
2022/05/11 05:54:45;;;;;;;;;;;;;;;;;;5023146;28;20394;-82
2022/05/11 05:57:12;;;;;;;;;;;;;;;;;;5022586;28;19921;-81
2022/05/11 05:59:37;;;;;;;;;;;;;;;;;;5022923;28;19917;-80
2022/05/11 06:02:03;;;;;;;;;;;;;;;;;;5022735;28;19924;-80
2022/05/11 06:04:28;;;;;;;;;;;;;;;;;;5020806;28;19967;-80
2022/05/11 06:06:53;;;;;;;;;;;;;;;;;;5038392;28;19917;-80
2022/05/11 06:09:19;;;;;;;;;;;;;;;;;;5023722;28;19918;-80
2022/05/11 06:11:44;;;;;;;;;;;;;;;;;;5025067;28;19952;-81
2022/05/11 06:14:09;;;;;;;;;;;;;;;;;;5026900;28;19918;-81
2022/05/11 06:16:35;;;;;;;;;;;;;;;;;;5027575;28;19921;-80
2022/05/11 06:19:01;;;;;;;;;;;;;;;;;;5026873;28;19922;-81
2022/05/11 06:21:26;;;;;;;;;;;;;;;;;;5028105;28;19918;-81
2022/05/11 06:23:52;;;;;;;;;;;;;;;;;;5031090;28;19929;-81
2022/05/11 06:26:17;;;;;;;;;;;;;;;;;;5029394;28;19995;-81
2022/05/11 06:28:44;;;;;;;;;;;;;;;;;;5030162;28;20036;-81
2022/05/11 06:31:10;;;;;;;;;;;;;;;;;;5031740;28;19968;-81
2022/05/11 06:33:36;;;;;;;;;;;;;;;;;;5014956;28;19922;-81
2022/05/11 06:36:02;;;;;;;;;;;;;;;;;;5030247;28;19964;-81
2022/05/11 06:38:28;;;;;;;;;;;;;;;;;;5048718;28;19949;-81
2022/05/11 06:40:53;;;;;;;;;;;;;;;;;;5032891;28;19918;-81
2022/05/11 06:43:18;;;;;;;;;;;;;;;;;;5032227;28;19922;-81
2022/05/11 06:45:44;;;;;;;;;;;;;;;;;;5031483;28;19923;-80
2022/05/11 06:48:10;;;;;;;;;;;;;;;;;;5028274;28;19918;-79
2022/05/11 06:50:36;;;;;;;;;;;;;;;;;;5022186;28;19917;-80
2022/05/11 06:53:07;;;;;;;;;;;;;;;;;;5020067;28;19947;-81
2022/05/11 07:01:01;;;;;;;;;;;;;;;;;;5037560;28;19917;-81
2022/05/11 07:03:26;;;;;;;;;;;;;;;;;;5020134;28;19967;-83
2022/05/11 07:05:51;;;;;;;;;;;;;;;;;;5019141;28;19918;-83
2022/05/11 07:08:17;;;;;;;;;;;;;;;;;;5019871;28;19924;-85
2022/05/11 07:10:42;;;;;;;;;;;;;;;;;;5033630;28;19940;-84
2022/05/11 07:13:08;;;;;;;;;;;;;;;;;;5018839;28;19922;-83
2022/05/11 07:15:34;;;;;;;;;;;;;;;;;;5011376;28;19918;-82
2022/05/11 07:18:01;;;;;;;;;;;;;;;;;;5010755;28;20358;-83
2022/05/11 07:20:39;;;;;;;;;;;;;;;;;;4998538;28;19943;-83
2022/05/11 07:23:06;;;;;;;;;;;;;;;;;;4997967;28;20384;-83
2022/05/11 07:25:32;;;;;;;;;;;;;;;;;;4999569;28;20390;-82
2022/05/11 07:27:58;;;;;;;;;;;;;;;;;;5017999;28;19917;-83
2022/05/11 07:30:32;;;;;;;;;;;;;;;;;;4999452;28;19968;-82
2022/05/11 07:32:58;;;;;;;;;;;;;;;;;;5000185;28;19918;-82
2022/05/11 07:35:24;;;;;;;;;;;;;;;;;;5014916;28;19918;-82
2022/05/11 07:37:50;;;;;;;;;;;;;;;;;;5033534;28;19929;-82
2022/05/11 07:40:17;;;;;;;;;;;;;;;;;;5024365;28;19917;-81
2022/05/11 07:42:43;;;;;;;;;;;;;;;;;;5023378;28;19949;-79
2022/05/11 07:45:10;;;;;;;;;;;;;;;;;;5023118;28;19972;-79
2022/05/11 07:47:36;;;;;;;;;;;;;;;;;;5023197;28;19917;-79
2022/05/11 07:50:01;;;;;;;;;;;;;;;;;;5029503;28;19925;-81
2022/05/11 07:52:26;;;;;;;;;;;;;;;;;;5024309;28;19922;-79
2022/05/11 07:54:52;;;;;;;;;;;;;;;;;;5027524;28;19977;-81
2022/05/11 08:00:06;;;;;;;;;;;;;;;;;;5029820;28;19924;-80
2022/05/11 08:02:33;;;;;;;;;;;;;;;;;;5022152;28;19941;-81
2022/05/11 08:05:04;;;;;;;;;;;;;;;;;;5026927;28;19976;-82
2022/05/11 08:07:41;;;;;;;;;;;;;;;;;;5005454;28;19918;-82
2022/05/11 08:10:08;;;;;;;;;;;;;;;;;;5029667;28;19971;-80
2022/05/11 08:12:33;;;;;;;;;;;;;;;;;;5027919;28;19961;-82
2022/05/11 08:14:59;;;;;;;;;;;;;;;;;;5016915;28;19917;-81
2022/05/11 08:17:34;;;;;;;;;;;;;;;;;;5018174;28;19921;-80
2022/05/11 08:20:00;;;;;;;;;;;;;;;;;;5014188;28;19917;-80
2022/05/11 08:22:26;;;;;;;;;;;;;;;;;;5009154;28;19917;-82
2022/05/11 08:24:51;;;;;;;;;;;;;;;;;;5015749;28;19956;-81
2022/05/11 08:27:17;;;;;;;;;;;;;;;;;;5009329;28;19918;-80
2022/05/11 08:35:13;;;;;;;;;;;;;;;;;;5022473;28;19925;-84
2022/05/11 08:37:39;;;;;;;;;;;;;;;;;;4999992;28;19925;-84
2022/05/11 08:40:05;;;;;;;;;;;;;;;;;;5020980;28;19917;-83
2022/05/11 08:42:32;;;;;;;;;;;;;;;;;;5000562;28;20322;-84
2022/05/11 08:45:01;;;;;;;;;;;;;;;;;;5022181;28;19960;-83
2022/05/11 08:47:39;;;;;;;;;;;;;;;;;;5030469;28;19924;-82
2022/05/11 08:50:14;;;;;;;;;;;;;;;;;;5021276;28;20357;-82
2022/05/11 08:52:43;;;;;;;;;;;;;;;;;;5000232;28;19921;-84
2022/05/11 08:55:29;;;;;;;;;;;;;;;;;;5020861;28;19928;-81
2022/05/11 08:57:55;;;;;;;;;;;;;;;;;;5017639;28;19967;-82
2022/05/11 09:00:21;;;;;;;;;;;;;;;;;;4997934;28;19925;-81
2022/05/11 09:02:55;;;;;;;;;;;;;;;;;;5019875;28;19918;-82
2022/05/11 09:05:23;;;;;;;;;;;;;;;;;;5020692;28;19925;-80
2022/05/11 09:07:51;;;;;;;;;;;;;;;;;;5020998;28;20373;-83
2022/05/11 09:10:44;;;;;;;;;;;;;;;;;;4996704;28;20386;-83
2022/05/11 09:13:11;;;;;;;;;;;;;;;;;;5035804;28;19917;-83
2022/05/11 09:15:46;;;;;;;;;;;;;;;;;;5032529;28;19924;-83
2022/05/11 09:18:11;;;;;;;;;;;;;;;;;;5020209;28;19964;-83
2022/05/11 09:20:37;;;;;;;;;;;;;;;;;;5015503;28;19925;-82
2022/05/11 09:23:03;;;;;;;;;;;;;;;;;;5020384;28;19917;-83
2022/05/11 09:25:30;;;;;;;;;;;;;;;;;;4999538;28;19963;-83
2022/05/11 09:28:14;;;;;;;;;;;;;;;;;;5019967;28;20031;-80
2022/05/11 09:30:54;;;;;;;;;;;;;;;;;;5020639;28;19921;-79
2022/05/11 09:33:24;;;;;;;;;;;;;;;;;;5022102;28;19917;-81
2022/05/11 09:35:50;;;;;;;;;;;;;;;;;;5000821;28;19924;-81
2022/05/11 09:38:19;;;;;;;;;;;;;;;;;;5014851;28;19921;-81
2022/05/11 09:40:57;;;;;;;;;;;;;;;;;;5022845;28;19917;-81
2022/05/11 09:43:32;;;;;;;;;;;;;;;;;;5023578;28;19917;-81
2022/05/11 09:45:57;;;;;;;;;;;;;;;;;;5038180;28;19975;-80
2022/05/11 09:48:25;;;;;;;;;;;;;;;;;;5014994;28;19917;-79
2022/05/11 09:50:54;;;;;;;;;;;;;;;;;;5019677;28;19918;-84
2022/05/11 09:53:20;;;;;;;;;;;;;;;;;;4996380;28;19980;-83
2022/05/11 09:55:45;;;;;;;;;;;;;;;;;;5017910;28;19921;-84
2022/05/11 09:58:10;;;;;;;;;;;;;;;;;;5017680;28;19921;-84
2022/05/11 10:00:40;;;;;;;;;;;;;;;;;;5011917;28;19995;-85
2022/05/11 10:03:08;;;;;;;;;;;;;;;;;;5016892;28;19940;-84
2022/05/11 10:05:34;;;;;;;;;;;;;;;;;;4999023;28;19971;-82
2022/05/11 10:07:59;;;;;;;;;;;;;;;;;;5021327;28;19921;-81
2022/05/11 10:10:39;;;;;;;;;;;;;;;;;;5017697;28;19972;-81
2022/05/11 10:13:19;;;;;;;;;;;;;;;;;;5022988;28;19918;-81
2022/05/11 10:24:13;;;;;;;;;;;;;;;;;;5036839;28;20297;-81
2022/05/11 10:26:57;;;;;;;;;;;;;;;;;;5000740;28;20027;-82
2022/05/11 10:29:33;;;;;;;;;;;;;;;;;;5021641;28;19925;-80
2022/05/11 10:32:09;;;;;;;;;;;;;;;;;;5025147;28;19959;-83
2022/05/11 10:34:39;;;;;;;;;;;;;;;;;;4997345;28;20008;-75
2022/05/11 10:37:23;;;;;;;;;;;;;;;;;;5014726;28;19922;-78
2022/05/11 10:39:56;;;;;;;;;;;;;;;;;;5016220;28;19918;-80
2022/05/11 10:42:31;;;;;;;;;;;;;;;;;;5010558;28;19972;-78
2022/05/11 10:45:10;;;;;;;;;;;;;;;;;;5019121;28;19917;-78
2022/05/11 10:47:40;;;;;;;;;;;;;;;;;;5013169;28;19924;-79
2022/05/11 10:50:09;;;;;;;;;;;;;;;;;;5020314;28;19917;-77
2022/05/11 10:52:46;;;;;;;;;;;;;;;;;;5025235;28;19922;-76
2022/05/11 10:55:16;;;;;;;;;;;;;;;;;;5030617;28;19924;-76
2022/05/11 10:57:49;;;;;;;;;;;;;;;;;;5010103;28;20398;-76
2022/05/11 11:00:18;;;;;;;;;;;;;;;;;;5015154;28;19924;-75
2022/05/11 11:03:02;;;;;;;;;;;;;;;;;;5015188;28;19917;-75
2022/05/11 11:05:31;;;;;;;;;;;;;;;;;;5015054;28;19917;-75
2022/05/11 11:08:14;;;;;;;;;;;;;;;;;;5011327;28;20012;-75
2022/05/11 11:10:43;;;;;;;;;;;;;;;;;;5025137;28;19917;-75
2022/05/11 11:13:11;;;;;;;;;;;;;;;;;;5014815;28;19917;-75
2022/05/11 11:15:38;;;;;;;;;;;;;;;;;;5014726;28;20020;-75
2022/05/11 11:18:04;;;;;;;;;;;;;;;;;;4995965;28;19921;-75
2022/05/11 11:20:32;;;;;;;;;;;;;;;;;;5014571;28;19924;-75
2022/05/11 11:23:02;;;;;;;;;;;;;;;;;;5006248;28;19921;-75
2022/05/11 11:25:41;;;;;;;;;;;;;;;;;;5005393;28;19949;-75
2022/05/11 11:28:12;;;;;;;;;;;;;;;;;;4987655;28;20008;-75
2022/05/11 11:30:38;;;;;;;;;;;;;;;;;;5014646;28;20406;-75
2022/05/11 11:33:16;;;;;;;;;;;;;;;;;;5015039;28;19921;-78
2022/05/11 11:35:50;;;;;;;;;;;;;;;;;;5015881;28;19922;-81
2022/05/11 11:38:43;;;;;;;;;;;;;;;;;;5020937;28;19944;-80
2022/05/11 11:41:11;;;;;;;;;;;;;;;;;;5034312;28;19922;-78
2022/05/11 11:43:45;;;;;;;;;;;;;;;;;;5008021;28;20021;-79
2022/05/11 11:46:44;;;;;;;;;;;;;;;;;;5003215;28;20375;-79
2022/05/11 11:49:19;;;;;;;;;;;;;;;;;;4975256;28;19956;-78
2022/05/11 11:51:50;;;;;;;;;;;;;;;;;;5015384;28;20425;-76
2022/05/11 11:54:34;;;;;;;;;;;;;;;;;;5014015;28;19926;-76
2022/05/11 11:57:00;;;;;;;;;;;;;;;;;;5011336;28;19921;-75
2022/05/11 11:59:26;;;;;;;;;;;;;;;;;;4989633;28;20280;-75
2022/05/11 12:01:54;;;;;;;;;;;;;;;;;;5010638;28;19924;-75
2022/05/11 12:04:22;;;;;;;;;;;;;;;;;;5004007;28;19928;-75
2022/05/11 12:15:30;;;;;;;;;;;;;;;;;;5012434;28;19917;-76
2022/05/11 12:17:55;;;;;;;;;;;;;;;;;;5008590;28;20010;-76
2022/05/11 12:20:21;;;;;;;;;;;;;;;;;;5020606;28;19971;-75
2022/05/11 12:22:51;;;;;;;;;;;;;;;;;;5011222;28;20008;-75
2022/05/11 12:25:19;;;;;;;;;;;;;;;;;;5013688;28;19917;-76
2022/05/11 12:27:44;;;;;;;;;;;;;;;;;;5014030;28;19917;-75
2022/05/11 12:30:16;;;;;;;;;;;;;;;;;;5045225;28;19972;-75
2022/05/11 12:32:49;;;;;;;;;;;;;;;;;;5024861;28;20355;-75
2022/05/11 12:35:25;;;;;;;;;;;;;;;;;;5014132;28;19917;-75
2022/05/11 12:37:57;;;;;;;;;;;;;;;;;;5009294;28;19921;-75
2022/05/11 12:40:22;;;;;;;;;;;;;;;;;;5005797;28;19968;-75
2022/05/11 12:42:55;;;;;;;;;;;;;;;;;;5014103;28;20023;-75
2022/05/11 12:45:35;;;;;;;;;;;;;;;;;;5013335;28;19953;-76
2022/05/11 12:48:01;;;;;;;;;;;;;;;;;;5013803;28;19917;-76
2022/05/11 12:50:33;;;;;;;;;;;;;;;;;;5013738;28;19917;-75
2022/05/11 12:53:01;;;;;;;;;;;;;;;;;;5013439;28;19922;-75
2022/05/11 12:55:27;;;;;;;;;;;;;;;;;;5013783;28;20055;-75
2022/05/11 12:57:55;;;;;;;;;;;;;;;;;;5012502;28;19972;-75
2022/05/11 13:00:22;;;;;;;;;;;;;;;;;;4996216;28;20003;-75
2022/05/11 13:02:49;;;;;;;;;;;;;;;;;;4979534;28;19918;-75
2022/05/11 13:05:16;;;;;;;;;;;;;;;;;;4995746;28;19918;-75
2022/05/11 13:07:51;;;;;;;;;;;;;;;;;;4995910;28;19920;-75
2022/05/11 13:10:22;;;;;;;;;;;;;;;;;;5013586;28;20379;-75
2022/05/11 13:12:51;;;;;;;;;;;;;;;;;;5013628;28;20362;-75
2022/05/11 13:15:32;;;;;;;;;;;;;;;;;;5017471;28;20359;-75
2022/05/11 13:17:57;;;;;;;;;;;;;;;;;;5016978;28;20338;-75
2022/05/11 13:20:23;;;;;;;;;;;;;;;;;;5017171;28;19914;-75
2022/05/11 13:22:53;;;;;;;;;;;;;;;;;;5017124;28;20378;-75
2022/05/11 13:25:37;;;;;;;;;;;;;;;;;;5016858;28;19917;-75
2022/05/11 13:28:10;;;;;;;;;;;;;;;;;;4998952;28;19979;-75
2022/05/11 13:30:40;;;;;;;;;;;;;;;;;;5016498;28;19972;-75
2022/05/11 13:33:25;;;;;;;;;;;;;;;;;;4982954;28;19922;-75
2022/05/11 13:36:03;;;;;;;;;;;;;;;;;;5016878;28;20381;-75
2022/05/11 13:38:29;;;;;;;;;;;;;;;;;;5016552;28;20326;-75
2022/05/11 13:40:54;;;;;;;;;;;;;;;;;;4999151;28;20406;-75
2022/05/11 13:43:28;;;;;;;;;;;;;;;;;;5015614;28;19953;-74
2022/05/11 13:45:54;;;;;;;;;;;;;;;;;;5016697;28;19923;-75
2022/05/11 13:48:40;;;;;;;;;;;;;;;;;;4982986;28;19923;-75
2022/05/11 13:51:22;;;;;;;;;;;;;;;;;;5016641;28;19960;-75
2022/05/11 13:53:49;;;;;;;;;;;;;;;;;;5016127;28;19917;-75
2022/05/11 13:56:15;;;;;;;;;;;;;;;;;;5016538;28;19918;-75
2022/05/11 13:58:42;;;;;;;;;;;;;;;;;;5016573;28;19928;-75
2022/05/11 14:01:12;;;;;;;;;;;;;;;;;;5016641;28;20350;-75
2022/05/11 14:03:40;;;;;;;;;;;;;;;;;;4981322;28;19917;-75
2022/05/11 14:06:09;;;;;;;;;;;;;;;;;;5016533;28;19953;-75
2022/05/11 14:08:34;;;;;;;;;;;;;;;;;;4999002;28;19953;-75
2022/05/11 14:11:00;;;;;;;;;;;;;;;;;;5016404;28;20294;-74
2022/05/11 14:13:25;;;;;;;;;;;;;;;;;;4998876;28;19985;-74
2022/05/11 14:15:51;;;;;;;;;;;;;;;;;;5014904;28;20286;-75
2022/05/11 14:18:20;;;;;;;;;;;;;;;;;;5015882;28;20244;-75
2022/05/11 14:20:46;;;;;;;;;;;;;;;;;;4998898;28;19917;-74
2022/05/11 14:23:11;;;;;;;;;;;;;;;;;;4982248;28;19924;-75
2022/05/11 14:25:37;;;;;;;;;;;;;;;;;;5014170;28;19918;-75
2022/05/11 14:28:02;;;;;;;;;;;;;;;;;;5015817;28;20011;-75
2022/05/11 14:30:27;;;;;;;;;;;;;;;;;;4998380;28;20013;-75
2022/05/11 14:32:53;;;;;;;;;;;;;;;;;;5014548;28;20012;-75
2022/05/11 14:35:20;;;;;;;;;;;;;;;;;;5014441;28;19928;-75
2022/05/11 14:37:46;;;;;;;;;;;;;;;;;;4998148;28;19922;-75
2022/05/11 14:40:12;;;;;;;;;;;;;;;;;;5014247;28;20441;-75
2022/05/11 14:42:38;;;;;;;;;;;;;;;;;;4997889;28;20497;-75
2022/05/11 14:45:04;;;;;;;;;;;;;;;;;;4997640;28;19953;-75
2022/05/11 14:47:31;;;;;;;;;;;;;;;;;;5014018;28;20418;-75
2022/05/11 14:49:57;;;;;;;;;;;;;;;;;;5015687;28;19917;-75
2022/05/11 14:52:23;;;;;;;;;;;;;;;;;;4997692;28;19941;-75
2022/05/11 14:54:48;;;;;;;;;;;;;;;;;;4997963;28;20372;-75
2022/05/11 15:02:42;;;;;;;;;;;;;;;;;;5014831;28;19917;-75
2022/05/11 15:05:11;;;;;;;;;;;;;;;;;;5015184;28;19921;-75
2022/05/11 15:07:36;;;;;;;;;;;;;;;;;;4997468;28;19917;-75
2022/05/11 15:10:03;;;;;;;;;;;;;;;;;;5014982;28;19939;-75
2022/05/11 15:15:12;;;;;;;;;;;;;;;;;;4997056;28;20016;-75
2022/05/11 15:17:38;;;;;;;;;;;;;;;;;;5014724;28;20016;-75
2022/05/11 15:20:06;;;;;;;;;;;;;;;;;;4997310;28;19960;-75
2022/05/11 15:22:33;;;;;;;;;;;;;;;;;;4997170;28;19921;-75
2022/05/11 15:24:58;;;;;;;;;;;;;;;;;;4997239;28;19924;-76
2022/05/11 15:27:24;;;;;;;;;;;;;;;;;;5015046;28;19917;-76
2022/05/11 15:29:49;;;;;;;;;;;;;;;;;;4997347;28;20007;-75
2022/05/11 15:32:20;;;;;;;;;;;;;;;;;;4997185;28;20007;-75
2022/05/11 15:34:45;;;;;;;;;;;;;;;;;;4997207;28;19968;-76
2022/05/11 15:37:11;;;;;;;;;;;;;;;;;;5013775;28;19964;-75
2022/05/11 15:39:36;;;;;;;;;;;;;;;;;;5014408;28;19924;-75
2022/05/11 15:42:02;;;;;;;;;;;;;;;;;;5014402;28;19917;-75
2022/05/11 15:44:27;;;;;;;;;;;;;;;;;;5013961;28;20016;-74
2022/05/11 15:46:53;;;;;;;;;;;;;;;;;;4996827;28;19968;-75
2022/05/11 15:49:18;;;;;;;;;;;;;;;;;;4997556;28;19964;-74
2022/05/11 15:51:44;;;;;;;;;;;;;;;;;;5014396;28;19928;-74
2022/05/11 15:54:15;;;;;;;;;;;;;;;;;;4996448;28;19922;-75
2022/05/11 15:56:41;;;;;;;;;;;;;;;;;;4980496;28;19925;-74
2022/05/11 15:59:07;;;;;;;;;;;;;;;;;;5014179;28;19979;-75
2022/05/11 16:01:32;;;;;;;;;;;;;;;;;;4996651;28;20359;-74
2022/05/11 16:03:58;;;;;;;;;;;;;;;;;;5013241;28;19914;-75
2022/05/11 16:06:23;;;;;;;;;;;;;;;;;;5014288;28;19917;-75
2022/05/11 16:08:49;;;;;;;;;;;;;;;;;;5014490;28;19932;-75
2022/05/11 16:11:21;;;;;;;;;;;;;;;;;;4996716;28;20323;-75
2022/05/11 16:13:46;;;;;;;;;;;;;;;;;;4996166;28;19917;-75
2022/05/11 16:16:11;;;;;;;;;;;;;;;;;;5013994;28;19924;-75
2022/05/11 16:21:21;;;;;;;;;;;;;;;;;;5013920;28;19917;-74
2022/05/11 16:23:46;;;;;;;;;;;;;;;;;;5014028;28;20405;-74
2022/05/11 16:26:12;;;;;;;;;;;;;;;;;;4996126;28;20283;-74
2022/05/11 16:28:38;;;;;;;;;;;;;;;;;;4996531;28;19924;-74
2022/05/11 16:31:03;;;;;;;;;;;;;;;;;;5014245;28;20004;-74
2022/05/11 16:33:28;;;;;;;;;;;;;;;;;;5012396;28;19921;-75
2022/05/11 16:35:54;;;;;;;;;;;;;;;;;;5012449;28;19917;-75
2022/05/11 16:38:19;;;;;;;;;;;;;;;;;;4996488;28;19918;-74
2022/05/11 16:40:44;;;;;;;;;;;;;;;;;;5013640;28;20024;-75
2022/05/11 16:43:10;;;;;;;;;;;;;;;;;;4979832;28;19917;-75
2022/05/11 16:45:35;;;;;;;;;;;;;;;;;;5013320;28;20362;-75
2022/05/11 16:48:01;;;;;;;;;;;;;;;;;;4996478;28;20000;-75
2022/05/11 16:50:26;;;;;;;;;;;;;;;;;;4987675;28;19917;-78
2022/05/11 16:52:51;;;;;;;;;;;;;;;;;;4995218;28;19945;-79
2022/05/11 16:55:17;;;;;;;;;;;;;;;;;;5022237;28;19917;-78
2022/05/11 16:57:42;;;;;;;;;;;;;;;;;;5018077;28;19983;-77
2022/05/11 17:00:10;;;;;;;;;;;;;;;;;;5016555;28;19921;-76
2022/05/11 17:02:35;;;;;;;;;;;;;;;;;;5040252;28;19917;-78
2022/05/11 17:05:02;;;;;;;;;;;;;;;;;;5023824;28;19917;-80
2022/05/11 17:07:28;;;;;;;;;;;;;;;;;;5004186;28;19918;-76
2022/05/11 17:09:55;;;;;;;;;;;;;;;;;;5017296;28;20000;-76
2022/05/11 17:12:20;;;;;;;;;;;;;;;;;;5017337;28;20017;-76
2022/05/11 17:14:47;;;;;;;;;;;;;;;;;;5017239;28;19953;-76
2022/05/11 17:17:13;;;;;;;;;;;;;;;;;;5032223;28;19928;-77
2022/05/11 17:19:38;;;;;;;;;;;;;;;;;;5015936;28;19921;-76
2022/05/11 17:22:04;;;;;;;;;;;;;;;;;;4999398;28;19940;-76
2022/05/11 17:24:31;;;;;;;;;;;;;;;;;;5031382;28;20253;-76
2022/05/11 17:26:57;;;;;;;;;;;;;;;;;;5016901;28;19918;-76
2022/05/11 17:29:23;;;;;;;;;;;;;;;;;;5032316;28;19971;-76
2022/05/11 17:31:49;;;;;;;;;;;;;;;;;;5016624;28;20398;-79
2022/05/11 17:34:15;;;;;;;;;;;;;;;;;;5015623;28;19968;-75
2022/05/11 17:36:40;;;;;;;;;;;;;;;;;;5016453;28;19925;-75
2022/05/11 17:39:06;;;;;;;;;;;;;;;;;;5015514;28;19917;-76
2022/05/11 17:41:32;;;;;;;;;;;;;;;;;;5015617;28;19918;-75
2022/05/11 17:43:58;;;;;;;;;;;;;;;;;;5016522;28;20275;-75
2022/05/11 17:46:23;;;;;;;;;;;;;;;;;;5016301;28;19917;-75